createdAt,value
2023-06-13T11:39:10.863Z,28.72
2023-06-13T11:41:10.799Z,28.95
2023-06-13T11:42:10.777Z,28.91
2023-06-13T11:43:10.756Z,28.69
2023-06-13T11:44:10.750Z,28.70
2023-06-13T11:45:10.733Z,28.97
2023-06-13T11:46:10.730Z,29.38
2023-06-13T11:47:10.746Z,29.84
2023-06-13T11:48:10.747Z,30.02
2023-06-13T11:49:10.773Z,30.27
2023-06-13T11:50:10.656Z,30.61
2023-06-13T11:51:10.659Z,30.52
2023-06-13T11:52:10.632Z,29.66
2023-06-13T11:53:10.655Z,29.37
2023-06-13T11:54:10.630Z,29.35
2023-06-13T11:55:10.610Z,29.68
2023-06-13T11:56:10.597Z,29.79
2023-06-13T11:57:10.613Z,29.86
2023-06-13T11:58:10.556Z,30.23
2023-06-13T11:59:10.554Z,30.47
2023-06-13T12:00:10.618Z,30.24
2023-06-13T12:01:10.526Z,30.29
2023-06-13T12:02:10.556Z,30.46
2023-06-13T12:03:10.663Z,30.50
2023-06-13T12:04:10.558Z,30.54
2023-06-13T12:05:10.513Z,30.98
2023-06-13T12:06:10.455Z,30.89
2023-06-13T12:07:10.447Z,31.11
2023-06-13T12:08:10.431Z,31.50
2023-06-13T12:09:10.421Z,31.99
2023-06-13T12:10:10.415Z,31.82
2023-06-13T12:11:20.455Z,31.46
2023-06-13T12:12:11.387Z,31.36
2023-06-13T12:13:10.370Z,30.37
2023-06-13T12:14:10.363Z,29.56
2023-06-13T12:15:10.355Z,29.65
2023-06-13T12:16:10.338Z,29.97
2023-06-13T12:17:10.577Z,30.27
2023-06-13T12:18:10.335Z,30.62
2023-06-13T12:19:10.351Z,30.67
2023-06-13T12:20:10.306Z,30.69
2023-06-13T12:21:10.271Z,30.14
2023-06-13T12:22:10.293Z,29.97
2023-06-13T12:23:10.251Z,29.87
2023-06-13T12:24:10.271Z,29.75
2023-06-13T12:25:10.228Z,29.79
2023-06-13T12:26:10.207Z,30.07
2023-06-13T12:27:10.195Z,29.62
2023-06-13T12:28:10.214Z,29.52
2023-06-13T12:29:10.197Z,30.03
2023-06-13T12:30:10.191Z,30.47
2023-06-13T12:31:10.185Z,30.67
2023-06-13T12:32:10.148Z,30.99
2023-06-13T12:33:10.213Z,31.46
2023-06-13T12:34:10.106Z,31.88
2023-06-13T12:35:10.103Z,32.25
2023-06-13T12:36:10.082Z,31.99
2023-06-13T12:37:10.073Z,31.61
2023-06-13T12:38:10.070Z,31.40
2023-06-13T12:39:10.048Z,31.43
2023-06-13T12:40:10.041Z,31.38
2023-06-13T12:41:10.028Z,31.11
2023-06-13T12:42:10.072Z,31.18
2023-06-13T12:43:10.012Z,31.48
2023-06-13T12:44:10.018Z,31.68
2023-06-13T12:45:09.974Z,31.76
2023-06-13T12:46:09.969Z,31.80
2023-06-13T12:47:10.018Z,31.62
2023-06-13T12:48:10.027Z,31.48
2023-06-13T12:49:09.944Z,30.91
2023-06-13T12:50:09.976Z,30.76
2023-06-13T12:51:09.910Z,30.93
2023-06-13T12:52:09.887Z,31.06
2023-06-13T12:53:10.005Z,31.36
2023-06-13T12:54:09.852Z,31.23
2023-06-13T12:55:09.849Z,30.89
2023-06-13T12:56:09.850Z,30.56
2023-06-13T12:57:10.583Z,30.16
2023-06-13T12:58:09.799Z,29.84
2023-06-13T12:59:09.802Z,29.23
2023-06-13T13:00:09.782Z,29.13
2023-06-13T13:01:09.773Z,29.71
2023-06-13T13:02:10.045Z,29.86
2023-06-13T13:03:09.819Z,30.19
2023-06-13T13:04:09.826Z,30.29
2023-06-13T13:05:09.711Z,30.81
2023-06-13T13:06:09.712Z,31.06
2023-06-13T13:07:09.686Z,30.62
2023-06-13T13:08:09.679Z,30.53
2023-06-13T13:09:09.682Z,30.26
2023-06-13T13:10:09.656Z,30.52
2023-06-13T13:11:09.648Z,30.80
2023-06-13T13:12:09.641Z,31.08
2023-06-13T13:13:09.613Z,31.27
2023-06-13T13:14:09.593Z,31.23
2023-06-13T13:15:09.596Z,30.86
2023-06-13T13:16:09.604Z,31.39
2023-06-13T13:17:09.563Z,31.53
2023-06-13T13:18:09.573Z,31.62
2023-06-13T13:19:09.528Z,31.95
2023-06-13T13:20:09.530Z,31.95
2023-06-13T13:21:09.503Z,31.85
2023-06-13T13:22:09.508Z,32.15
2023-06-13T13:23:09.481Z,32.81
2023-06-13T13:24:09.537Z,32.76
2023-06-13T13:25:09.469Z,32.58
2023-06-13T13:26:09.447Z,32.44
2023-06-13T13:27:09.441Z,32.58
2023-06-13T13:28:09.422Z,32.18
2023-06-13T13:29:09.429Z,31.92
2023-06-13T13:30:09.396Z,31.68
2023-06-13T13:31:09.383Z,31.76
2023-06-13T13:32:09.445Z,32.05
2023-06-13T13:33:09.418Z,31.79
2023-06-13T13:34:22.085Z,31.84
2023-06-13T13:35:10.419Z,31.68
2023-06-13T13:36:09.320Z,32.21
2023-06-13T13:37:09.305Z,32.52
2023-06-13T13:38:09.296Z,32.81
2023-06-13T13:39:09.299Z,32.92
2023-06-13T13:40:09.262Z,33.33
2023-06-13T13:41:09.252Z,33.58
2023-06-13T13:42:17.999Z,33.74
2023-06-13T13:43:10.239Z,33.90
2023-06-13T13:44:09.226Z,33.65
2023-06-13T13:45:09.246Z,33.52
2023-06-13T13:46:09.186Z,33.41
2023-06-13T13:47:09.176Z,33.57
2023-06-13T13:48:09.235Z,33.52
2023-06-13T13:49:09.280Z,33.37
2023-06-13T13:50:09.300Z,32.79
2023-06-13T13:51:09.150Z,32.37
2023-06-13T13:52:09.111Z,32.21
2023-06-13T13:53:09.149Z,31.72
2023-06-13T13:54:09.083Z,31.50
2023-06-13T13:55:09.081Z,31.55
2023-06-13T13:56:09.084Z,31.60
2023-06-13T13:57:09.108Z,31.67
2023-06-13T13:58:09.046Z,31.72
2023-06-13T13:59:09.069Z,32.14
2023-06-13T14:00:09.014Z,31.92
2023-06-13T14:01:09.002Z,31.92
2023-06-13T14:02:09.141Z,31.72
2023-06-13T14:03:09.082Z,31.79
2023-06-13T14:04:09.044Z,31.53
2023-06-13T14:05:08.972Z,31.70
2023-06-13T14:06:08.931Z,32.15
2023-06-13T14:07:08.948Z,32.57
2023-06-13T14:08:08.911Z,32.02
2023-06-13T14:09:08.908Z,31.99
2023-06-13T14:10:08.952Z,31.33
2023-06-13T14:11:08.915Z,31.20
2023-06-13T14:12:08.926Z,31.02
2023-06-13T14:13:08.867Z,31.05
2023-06-13T14:14:08.849Z,31.75
2023-06-13T14:15:08.830Z,32.42
2023-06-13T14:16:08.864Z,32.35
2023-06-13T14:17:08.823Z,31.85
2023-06-13T14:18:08.853Z,31.77
2023-06-13T14:19:08.783Z,32.20
2023-06-13T14:20:08.762Z,31.87
2023-06-13T14:21:08.783Z,32.07
2023-06-13T14:22:08.732Z,32.25
2023-06-13T14:23:08.729Z,32.30
2023-06-13T14:24:08.776Z,32.40
2023-06-13T14:25:08.712Z,32.57
2023-06-13T14:26:08.703Z,32.02
2023-06-13T14:27:08.753Z,31.68
2023-06-13T14:28:08.668Z,31.50
2023-06-13T14:29:08.652Z,31.76
2023-06-13T14:30:16.502Z,31.68
2023-06-13T14:31:09.846Z,31.73
2023-06-13T14:32:08.693Z,31.82
2023-06-13T14:33:08.872Z,31.61
2023-06-13T14:34:08.590Z,31.48
2023-06-13T14:35:08.599Z,31.38
2023-06-13T14:36:08.572Z,31.85
2023-06-13T14:37:08.564Z,32.06
2023-06-13T14:38:08.545Z,31.80
2023-06-13T14:39:08.530Z,31.40
2023-06-13T14:40:08.525Z,31.75
2023-06-13T14:41:08.497Z,31.42
2023-06-13T14:42:08.497Z,31.15
2023-06-13T14:43:08.479Z,31.15
2023-06-13T14:44:08.517Z,31.40
2023-06-13T14:45:08.464Z,31.58
2023-06-13T14:46:08.483Z,32.02
2023-06-13T14:47:08.425Z,32.10
2023-06-13T14:48:08.560Z,31.91
2023-06-13T14:49:08.411Z,32.02
2023-06-13T14:50:08.484Z,32.24
2023-06-13T14:51:08.373Z,32.39
2023-06-13T14:52:08.384Z,32.06
2023-06-13T14:53:08.352Z,32.02
2023-06-13T14:54:08.358Z,31.82
2023-06-13T14:55:08.334Z,32.00
2023-06-13T14:56:08.348Z,31.55
2023-06-13T14:57:08.295Z,31.84
2023-06-13T14:58:08.304Z,32.25
2023-06-13T14:59:08.303Z,32.36
2023-06-13T15:00:15.310Z,31.85
2023-06-13T15:01:08.322Z,31.06
2023-06-13T15:02:08.273Z,31.38
2023-06-13T15:03:08.294Z,31.88
2023-06-13T15:04:08.210Z,32.54
2023-06-13T15:05:08.238Z,32.79
2023-06-13T15:06:08.196Z,32.76
2023-06-13T15:07:08.184Z,32.47
2023-06-13T15:08:08.177Z,31.77
2023-06-13T15:09:08.158Z,31.54
2023-06-13T15:10:08.147Z,31.06
2023-06-13T15:11:08.155Z,30.33
2023-06-13T15:12:08.142Z,30.49
2023-06-13T15:13:08.127Z,31.17
2023-06-13T15:14:08.083Z,31.80
2023-06-13T15:15:08.168Z,32.27
2023-06-13T15:16:08.140Z,31.64
2023-06-13T15:17:08.064Z,31.04
2023-06-13T15:18:08.111Z,31.17
2023-06-13T15:19:08.024Z,31.50
2023-06-13T15:20:08.025Z,31.87
2023-06-13T15:21:08.013Z,32.55
2023-06-13T15:22:08.008Z,33.31
2023-06-13T15:23:07.989Z,33.52
2023-06-13T15:24:08.002Z,33.46
2023-06-13T15:25:07.956Z,33.61
2023-06-13T15:26:07.962Z,33.23
2023-06-13T15:27:07.940Z,32.03
2023-06-13T15:28:07.921Z,32.07
2023-06-13T15:29:07.901Z,32.29
2023-06-13T15:30:07.895Z,32.80
2023-06-13T15:31:07.944Z,33.23
2023-06-13T15:32:07.883Z,33.67
2023-06-13T15:33:07.920Z,33.98
2023-06-13T15:34:07.837Z,33.85
2023-06-13T15:35:07.833Z,33.51
2023-06-13T15:36:07.842Z,32.20
2023-06-13T15:37:07.810Z,31.61
2023-06-13T15:38:07.796Z,31.88
2023-06-13T15:39:07.803Z,32.32
2023-06-13T15:40:07.807Z,32.64
2023-06-13T15:41:07.790Z,33.04
2023-06-13T15:42:07.747Z,33.22
2023-06-13T15:43:07.793Z,33.48
2023-06-13T15:44:07.734Z,33.63
2023-06-13T15:45:07.737Z,33.70
2023-06-13T15:46:07.706Z,33.64
2023-06-13T15:47:07.706Z,33.23
2023-06-13T15:48:07.735Z,32.48
2023-06-13T15:49:07.677Z,32.10
2023-06-13T15:50:07.664Z,32.22
2023-06-13T15:51:07.655Z,31.80
2023-06-13T15:52:07.627Z,31.77
2023-06-13T15:53:07.615Z,31.95
2023-06-13T15:54:07.613Z,32.03
2023-06-13T15:55:07.608Z,31.96
2023-06-13T15:56:09.058Z,31.42
2023-06-13T15:57:07.581Z,31.45
2023-06-13T15:58:07.558Z,31.53
2023-06-13T15:59:07.556Z,31.84
2023-06-13T16:00:07.562Z,32.07
2023-06-13T16:01:07.763Z,32.14
2023-06-13T16:02:07.502Z,32.33
2023-06-13T16:03:07.694Z,31.99
2023-06-13T16:04:07.525Z,31.99
2023-06-13T16:05:07.494Z,31.65
2023-06-13T16:06:07.453Z,31.28
2023-06-13T16:07:07.456Z,30.96
2023-06-13T16:08:07.434Z,31.24
2023-06-13T16:09:07.447Z,31.33
2023-06-13T16:10:07.404Z,31.26
2023-06-13T16:11:07.393Z,31.39
2023-06-13T16:12:07.393Z,31.27
2023-06-13T16:13:07.391Z,31.31
2023-06-13T16:14:07.362Z,31.45
2023-06-13T16:15:07.420Z,31.61
2023-06-13T16:16:07.358Z,31.93
2023-06-13T16:17:07.362Z,32.07
2023-06-13T16:18:07.557Z,31.84
2023-06-13T16:19:07.417Z,32.00
2023-06-13T16:20:07.282Z,31.67
2023-06-13T16:21:07.269Z,31.15
2023-06-13T16:22:07.260Z,30.78
2023-06-13T16:23:07.259Z,30.75
2023-06-13T16:24:07.347Z,30.94
2023-06-13T16:25:07.226Z,30.83
2023-06-13T16:26:07.308Z,30.94
2023-06-13T16:27:07.218Z,30.98
2023-06-13T16:28:07.217Z,31.09
2023-06-13T16:29:07.203Z,31.42
2023-06-13T16:30:07.216Z,31.53
2023-06-13T16:31:07.198Z,31.62
2023-06-13T16:32:07.146Z,31.67
2023-06-13T16:33:07.188Z,31.62
2023-06-13T16:34:07.110Z,31.68
2023-06-13T16:35:07.090Z,31.50
2023-06-13T16:36:07.110Z,31.17
2023-06-13T16:37:07.085Z,30.81
2023-06-13T16:38:07.054Z,30.59
2023-06-13T16:39:07.051Z,30.37
2023-06-13T16:40:07.030Z,30.30
2023-06-13T16:41:10.078Z,30.47
2023-06-13T16:42:07.047Z,30.64
2023-06-13T16:43:06.996Z,30.33
2023-06-13T16:44:06.992Z,30.07
2023-06-13T16:45:06.980Z,30.09
2023-06-13T16:46:07.061Z,30.15
2023-06-13T16:47:07.966Z,30.24
2023-06-13T16:48:07.037Z,30.15
2023-06-13T16:49:06.925Z,30.12
2023-06-13T16:50:06.902Z,30.16
2023-06-13T16:51:06.941Z,30.29
2023-06-13T16:52:06.881Z,30.19
2023-06-13T16:53:06.875Z,30.33
2023-06-13T16:54:06.850Z,30.30
2023-06-13T16:55:06.856Z,30.45
2023-06-13T16:56:06.832Z,30.47
2023-06-13T16:57:06.818Z,30.53
2023-06-13T16:58:06.816Z,30.52
2023-06-13T16:59:06.807Z,30.50
2023-06-13T17:00:06.798Z,30.59
2023-06-13T17:01:06.784Z,30.45
2023-06-13T17:02:06.789Z,30.24
2023-06-13T17:03:06.880Z,30.15
2023-06-13T17:04:06.942Z,30.02
2023-06-13T17:05:06.739Z,30.07
2023-06-13T17:06:06.735Z,30.05
2023-06-13T17:07:06.758Z,30.07
2023-06-13T17:08:06.692Z,30.02
2023-06-13T17:09:06.670Z,29.99
2023-06-13T17:10:06.673Z,30.16
2023-06-13T17:11:06.648Z,30.23
2023-06-13T17:12:06.624Z,30.30
2023-06-13T17:13:06.619Z,29.84
2023-06-13T17:14:06.617Z,29.60
2023-06-13T17:15:06.614Z,29.68
2023-06-13T17:16:06.598Z,29.62
2023-06-13T17:17:06.580Z,29.25
2023-06-13T17:18:06.631Z,28.84
2023-06-13T17:19:06.559Z,28.70
2023-06-13T17:20:06.551Z,28.85
2023-06-13T17:21:06.533Z,28.81
2023-06-13T17:22:06.529Z,28.91
2023-06-13T17:23:06.495Z,28.82
2023-06-13T17:24:06.930Z,28.85
2023-06-13T17:25:06.463Z,28.80
2023-06-13T17:26:06.468Z,28.69
2023-06-13T17:27:06.453Z,28.90
2023-06-13T17:28:06.444Z,28.90
2023-06-13T17:29:06.429Z,28.90
2023-06-13T17:30:06.432Z,28.87
2023-06-13T17:31:06.397Z,28.68
2023-06-13T17:32:06.465Z,28.77
2023-06-13T17:33:06.483Z,28.54
2023-06-13T17:34:06.357Z,28.58
2023-06-13T17:35:06.347Z,28.59
2023-06-13T17:36:06.325Z,28.68
2023-06-13T17:37:06.399Z,28.84
2023-06-13T17:38:06.303Z,28.68
2023-06-13T17:39:06.305Z,28.60
2023-06-13T17:40:06.267Z,28.63
2023-06-13T17:41:06.284Z,28.77
2023-06-13T17:42:06.259Z,28.70
2023-06-13T17:43:06.261Z,28.56
2023-06-13T17:44:06.226Z,28.29
2023-06-13T17:45:06.223Z,28.25
2023-06-13T17:46:06.199Z,28.23
2023-06-13T17:47:06.200Z,28.35
2023-06-13T17:48:06.215Z,28.41
2023-06-13T17:49:06.366Z,28.35
2023-06-13T17:50:06.154Z,28.31
2023-06-13T17:51:06.140Z,28.31
2023-06-13T17:52:06.131Z,28.23
2023-06-13T17:53:06.122Z,28.21
2023-06-13T17:54:06.090Z,28.11
2023-06-13T17:55:06.087Z,28.06
2023-06-13T17:56:06.081Z,28.10
2023-06-13T17:57:06.084Z,28.26
2023-06-13T17:58:06.049Z,28.29
2023-06-13T17:59:06.038Z,28.17
2023-06-13T18:00:06.026Z,28.22
2023-06-13T18:01:06.046Z,28.31
2023-06-13T18:02:06.005Z,28.48
2023-06-13T18:03:05.999Z,28.53
2023-06-13T18:04:06.063Z,28.63
2023-06-13T18:05:05.949Z,28.65
2023-06-13T18:06:05.954Z,28.31
2023-06-13T18:07:05.940Z,28.16
2023-06-13T18:08:05.925Z,27.98
2023-06-13T18:09:05.927Z,27.74
2023-06-13T18:10:05.917Z,27.69
2023-06-13T18:11:05.931Z,27.51
2023-06-13T18:12:16.897Z,27.57
2023-06-13T18:13:06.901Z,27.54
2023-06-13T18:14:05.857Z,27.61
2023-06-13T18:15:05.847Z,27.69
2023-06-13T18:16:05.910Z,27.59
2023-06-13T18:17:05.796Z,27.46
2023-06-13T18:18:05.814Z,27.21
2023-06-13T18:19:05.861Z,27.17
2023-06-13T18:20:05.783Z,27.14
2023-06-13T18:21:05.748Z,27.19
2023-06-13T18:22:05.764Z,26.99
2023-06-13T18:23:05.732Z,26.87
2023-06-13T18:24:05.794Z,26.76
2023-06-13T18:25:05.703Z,26.55
2023-06-13T18:26:05.694Z,26.27
2023-06-13T18:27:05.671Z,26.17
2023-06-13T18:28:05.680Z,25.99
2023-06-13T18:29:05.655Z,25.87
2023-06-13T18:30:05.643Z,25.79
2023-06-13T18:31:05.668Z,25.69
2023-06-13T18:32:05.606Z,25.67
2023-06-13T18:33:05.682Z,25.59
2023-06-13T18:34:05.615Z,25.50
2023-06-13T18:35:05.562Z,25.49
2023-06-13T18:36:05.558Z,25.44
2023-06-13T18:37:05.584Z,25.43
2023-06-13T18:38:05.556Z,25.34
2023-06-13T18:39:05.530Z,25.32
2023-06-13T18:40:05.501Z,25.31
2023-06-13T18:41:05.496Z,25.27
2023-06-13T18:42:05.475Z,25.24
2023-06-13T18:43:05.492Z,25.19
2023-06-13T18:44:05.450Z,25.15
2023-06-13T18:45:05.453Z,25.05
2023-06-13T18:46:05.442Z,24.98
2023-06-13T18:47:05.522Z,24.90
2023-06-13T18:48:05.489Z,24.90
2023-06-13T18:49:05.385Z,24.85
2023-06-13T18:50:05.374Z,24.79
2023-06-13T18:51:05.364Z,24.83
2023-06-13T18:52:05.354Z,24.82
2023-06-13T18:53:05.354Z,24.77
2023-06-13T18:54:05.329Z,24.73
2023-06-13T18:55:05.314Z,24.71
2023-06-13T18:56:05.319Z,24.64
2023-06-13T18:57:05.297Z,24.56
2023-06-13T18:58:05.290Z,24.52
2023-06-13T18:59:05.273Z,24.47
2023-06-13T19:00:05.247Z,24.41
2023-06-13T19:01:05.357Z,24.37
2023-06-13T19:02:05.232Z,24.32
2023-06-13T19:03:08.033Z,24.29
2023-06-13T19:04:05.217Z,24.23
2023-06-13T19:05:05.188Z,24.19
2023-06-13T19:06:05.171Z,24.16
2023-06-13T19:07:05.177Z,24.08
2023-06-13T19:08:05.150Z,24.08
2023-06-13T19:09:05.130Z,24.07
2023-06-13T19:10:05.135Z,24.01
2023-06-13T19:11:05.115Z,23.97
2023-06-13T19:12:05.125Z,23.97
2023-06-13T19:13:05.154Z,23.92
2023-06-13T19:14:05.062Z,23.87
2023-06-13T19:15:05.047Z,23.82
2023-06-13T19:16:05.046Z,23.76
2023-06-13T19:17:05.063Z,23.68
2023-06-13T19:18:07.238Z,23.58
2023-06-13T19:19:05.008Z,23.50
2023-06-13T19:20:04.969Z,23.40
2023-06-13T19:21:05.245Z,23.31
2023-06-13T19:22:05.004Z,23.24
2023-06-13T19:23:04.955Z,23.17
2023-06-13T19:24:05.043Z,23.09
2023-06-13T19:25:06.773Z,23.02
2023-06-13T19:26:04.912Z,22.96
2023-06-13T19:27:04.891Z,22.90
2023-06-13T19:29:05.872Z,22.77
2023-06-13T19:30:04.861Z,22.71
2023-06-13T19:31:04.891Z,22.65
2023-06-13T19:32:04.833Z,22.59
2023-06-13T19:33:04.904Z,22.53
2023-06-13T19:34:04.810Z,22.44
2023-06-13T19:35:04.849Z,22.41
2023-06-13T19:36:04.800Z,22.35
2023-06-13T19:37:04.798Z,22.31
2023-06-13T19:38:04.752Z,22.22
2023-06-13T19:39:04.755Z,22.16
2023-06-13T19:40:04.731Z,22.07
2023-06-13T19:41:04.706Z,22.01
2023-06-13T19:42:04.685Z,21.97
2023-06-13T19:43:04.688Z,21.91
2023-06-13T19:44:04.679Z,21.88
2023-06-13T19:45:04.660Z,21.83
2023-06-13T19:46:04.632Z,21.75
2023-06-13T19:47:04.638Z,21.66
2023-06-13T19:48:04.660Z,21.59
2023-06-13T19:49:04.673Z,21.53
2023-06-13T19:50:04.584Z,21.51
2023-06-13T19:51:17.841Z,21.51
2023-06-13T19:52:05.551Z,21.50
2023-06-13T19:53:04.576Z,21.46
2023-06-13T19:54:04.541Z,21.45
2023-06-13T19:55:04.524Z,21.41
2023-06-13T19:56:04.498Z,21.39
2023-06-13T19:57:04.495Z,21.34
2023-06-13T19:58:04.506Z,21.27
2023-06-13T19:59:04.485Z,21.27
2023-06-13T20:00:04.453Z,21.27
2023-06-13T20:01:04.446Z,21.20
2023-06-13T20:02:04.472Z,21.17
2023-06-13T20:03:04.469Z,21.17
2023-06-13T20:04:04.434Z,21.16
2023-06-13T20:05:04.421Z,21.13
2023-06-13T20:06:04.374Z,21.08
2023-06-13T20:07:04.377Z,21.05
2023-06-13T20:08:04.359Z,21.02
2023-06-13T20:09:04.346Z,20.99
2023-06-13T20:10:04.324Z,20.93
2023-06-13T20:11:04.316Z,20.89
2023-06-13T20:12:04.302Z,20.83
2023-06-13T20:13:04.299Z,20.83
2023-06-13T20:14:04.266Z,20.79
2023-06-13T20:15:04.261Z,20.79
2023-06-13T20:16:04.375Z,20.72
2023-06-13T20:17:04.246Z,20.69
2023-06-13T20:18:04.275Z,20.64
2023-06-13T20:19:04.221Z,20.61
2023-06-13T20:20:04.184Z,20.59
2023-06-13T20:21:04.179Z,20.51
2023-06-13T20:22:04.178Z,20.46
2023-06-13T20:23:04.149Z,20.39
2023-06-13T20:24:04.203Z,20.34
2023-06-13T20:25:04.124Z,20.33
2023-06-13T20:26:04.147Z,20.31
2023-06-13T20:27:04.126Z,20.28
2023-06-13T20:28:04.098Z,20.24
2023-06-13T20:29:04.150Z,20.21
2023-06-13T20:30:04.063Z,20.18
2023-06-13T20:31:04.059Z,20.16
2023-06-13T20:32:04.096Z,20.13
2023-06-13T20:33:04.074Z,20.13
2023-06-13T20:34:04.007Z,20.10
2023-06-13T20:35:04.002Z,20.08
2023-06-13T20:36:04.013Z,20.05
2023-06-13T20:37:03.987Z,20.03
2023-06-13T20:38:03.948Z,20.02
2023-06-13T20:39:03.940Z,20.02
2023-06-13T20:40:03.971Z,20.00
2023-06-13T20:41:03.981Z,19.97
2023-06-13T20:42:03.913Z,19.95
2023-06-13T20:43:03.886Z,19.93
2023-06-13T20:44:03.877Z,19.90
2023-06-13T20:45:03.879Z,19.91
2023-06-13T20:46:03.912Z,19.90
2023-06-13T20:47:03.838Z,19.86
2023-06-13T20:48:03.842Z,19.86
2023-06-13T20:49:03.855Z,19.87
2023-06-13T20:50:03.823Z,19.88
2023-06-13T20:51:03.912Z,19.88
2023-06-13T20:52:03.768Z,19.87
2023-06-13T20:53:03.762Z,19.86
2023-06-13T20:54:03.750Z,19.86
2023-06-13T20:55:03.744Z,19.86
2023-06-13T20:56:03.719Z,19.86
2023-06-13T20:57:03.748Z,19.84
2023-06-13T20:58:03.680Z,19.80
2023-06-13T20:59:03.688Z,19.80
